Grassy Butte, North Dakota
Current Conditions -  °F | °C
As of 12:55 AM on Friday 19 Dec 2014 (Local Time) from KS25 Reporting Station
Moderate Fog Moderate Fog  
Wind Chill: 16°   Ceiling: 100
Heat Index: 16°   Visibility: 0.25mi
Dew Point: 16°   Wind: 0mph
Humidity: 100%   Direction: NA
Pressure: 29.9"   Gusts: NA
Location:  47.39°N, 103.25°W
Report Text: KS25 190755Z AUTO 00000KT 1/4SM FZFG OVC001 M09/M09 A2990 RMK AO2
Loading
Personal Weather Stations






























Interactive Weather Map New forecast layout! Learn more

10-Day Weather Forecast

Advertisements
Track Severe Weather on mobile